Time;durP1;ratioP1;P1;durP2;ratioP2;P2;SDS_P1;SDS_P2;PMS_P1;PMS_P2;Temp;Humidity;BMP_temperature;BMP_pressure;BME280_temperature;BME280_humidity;BME280_pressure;Samples;Min_cycle;Max_cycle;Signal;HPM_P1;HPM_P2
2022/12/13 00:03:13;;;;;;;23.03;13.80;;;;;;;-2.11;81.80;101329.44;6208019;28;20324;-70
2022/12/13 00:06:35;;;;;;;22.80;15.27;;;;;;;-1.97;82.54;101334.31;6199889;28;20522;-70
2022/12/13 00:09:57;;;;;;;18.53;10.77;;;;;;;-2.00;81.55;101329.13;6196724;28;20230;-70
2022/12/13 00:13:18;;;;;;;20.80;14.60;;;;;;;-2.14;81.69;101333.94;6206182;28;20228;-70
2022/12/13 00:16:40;;;;;;;18.90;12.57;;;;;;;-2.14;82.17;101324.25;6191545;28;20270;-70
2022/12/13 00:20:02;;;;;;;22.13;11.53;;;;;;;-2.11;82.89;101323.28;6192723;28;20237;-70
2022/12/13 00:23:24;;;;;;;28.73;12.47;;;;;;;-2.21;82.72;101321.84;6194001;28;20225;-70
2022/12/13 00:26:46;;;;;;;19.17;12.60;;;;;;;-2.21;82.98;101321.84;6190208;28;20305;-70
2022/12/13 00:30:07;;;;;;;17.57;10.73;;;;;;;-2.24;82.44;101317.50;6186993;28;20225;-71
2022/12/13 00:33:29;;;;;;;14.97;10.67;;;;;;;-2.19;82.55;101328.78;6210931;28;20230;-71
2022/12/13 00:36:50;;;;;;;22.47;12.57;;;;;;;-2.24;81.97;101321.91;6211584;28;20328;-70
2022/12/13 00:40:11;;;;;;;17.53;10.57;;;;;;;-2.21;82.22;101322.69;6212002;28;20614;-70
2022/12/13 00:43:33;;;;;;;18.50;11.60;;;;;;;-2.29;81.38;101322.03;6183172;28;20229;-70
2022/12/13 00:46:55;;;;;;;22.20;13.47;;;;;;;-2.28;81.95;101315.88;6210518;28;20245;-70
2022/12/13 00:50:16;;;;;;;18.63;11.13;;;;;;;-2.23;82.54;101313.94;6213204;28;20221;-70
2022/12/13 00:53:38;;;;;;;18.17;11.00;;;;;;;-2.20;82.51;101313.88;6212458;28;20233;-69
2022/12/13 00:56:59;;;;;;;18.07;11.10;;;;;;;-2.21;81.53;101309.47;6217161;28;20229;-69
2022/12/13 01:00:21;;;;;;;17.63;11.37;;;;;;;-2.11;81.86;101295.13;6212320;28;20232;-69
2022/12/13 01:03:43;;;;;;;15.53;11.30;;;;;;;-2.22;82.28;101302.50;6208072;28;20233;-70
2022/12/13 01:07:04;;;;;;;16.20;10.17;;;;;;;-2.23;82.05;101306.03;6212417;28;20323;-70
2022/12/13 01:10:26;;;;;;;12.87;9.57;;;;;;;-2.23;81.18;101295.47;6220148;28;20584;-69
2022/12/13 01:13:47;;;;;;;23.40;13.00;;;;;;;-2.32;81.54;101293.13;6209698;28;20245;-69
2022/12/13 01:17:09;;;;;;;24.13;15.07;;;;;;;-2.28;81.79;101297.41;6207921;28;20225;-69
2022/12/13 01:20:30;;;;;;;22.30;15.03;;;;;;;-2.42;81.22;101296.06;6207292;28;20328;-70
2022/12/13 01:23:50;;;;;;;19.67;12.53;;;;;;;-2.35;81.95;101293.19;6210791;28;20241;-69
2022/12/13 01:27:11;;;;;;;15.13;11.90;;;;;;;-2.40;81.15;101287.19;6208627;28;20232;-69
2022/12/13 01:30:32;;;;;;;17.77;11.67;;;;;;;-2.39;81.48;101293.31;6193569;28;20225;-69
2022/12/13 01:33:55;;;;;;;16.83;12.07;;;;;;;-2.38;81.58;101284.50;6201576;28;20226;-69
2022/12/13 01:37:16;;;;;;;20.13;13.40;;;;;;;-2.48;81.34;101286.53;6207852;28;20609;-69
2022/12/13 01:40:43;;;;;;;26.37;15.00;;;;;;;-2.53;81.71;101291.97;6207546;28;20232;-69
2022/12/13 01:44:07;;;;;;;23.57;11.97;;;;;;;-2.53;81.94;101291.09;6210828;28;20229;-70
2022/12/13 01:47:32;;;;;;;17.27;11.87;;;;;;;-2.46;81.19;101303.19;6204453;28;20237;-70
2022/12/13 01:50:59;;;;;;;19.07;12.80;;;;;;;-2.42;81.88;101296.94;6203933;28;20329;-69
2022/12/13 01:54:29;;;;;;;25.30;10.20;;;;;;;-2.48;81.69;101295.31;6205420;28;20240;-70
2022/12/13 01:57:52;;;;;;;25.63;14.23;;;;;;;-2.60;82.00;101287.78;6196092;28;20232;-69
2022/12/13 02:01:13;;;;;;;22.53;13.97;;;;;;;-2.46;81.02;101290.88;6207049;28;20499;-69
2022/12/13 02:04:40;;;;;;;25.13;12.10;;;;;;;-2.65;81.53;101288.81;6209393;28;20319;-70
2022/12/13 02:08:03;;;;;;;19.17;13.83;;;;;;;-2.72;81.71;101282.84;6212056;28;20580;-70
2022/12/13 02:11:24;;;;;;;24.57;13.00;;;;;;;-2.65;81.42;101281.75;6215189;28;20328;-70
2022/12/13 02:14:45;;;;;;;21.93;13.80;;;;;;;-2.64;82.45;101279.97;6207429;28;20238;-70
2022/12/13 02:18:19;;;;;;;17.73;11.73;;;;;;;-2.59;80.58;101280.72;6201308;28;20229;-69
2022/12/13 02:21:54;;;;;;;24.83;13.47;;;;;;;-2.64;80.32;101275.56;6209949;28;20245;-69
2022/12/13 02:25:44;;;;;;;24.07;12.83;;;;;;;-2.67;81.54;101262.47;6203432;28;20505;-69
2022/12/13 02:29:26;;;;;;;19.63;12.27;;;;;;;-2.70;81.63;101257.28;6208603;28;20236;-70
2022/12/13 02:33:10;;;;;;;15.40;12.13;;;;;;;-2.78;81.77;101261.03;6191553;28;20233;-69
2022/12/13 02:36:35;;;;;;;27.17;15.50;;;;;;;-2.81;81.61;101267.25;6164071;28;20221;-70
2022/12/13 02:40:00;;;;;;;23.03;13.77;;;;;;;-3.17;82.54;101257.72;6207316;28;20257;-70
2022/12/13 02:43:26;;;;;;;25.37;13.63;;;;;;;-2.98;83.03;101263.38;6192367;28;20226;-69
2022/12/13 02:46:51;;;;;;;19.47;15.67;;;;;;;-2.92;81.67;101252.66;6190842;28;20233;-70
2022/12/13 02:50:15;;;;;;;22.43;12.00;;;;;;;-2.85;82.20;101256.84;6211159;28;20257;-70
2022/12/13 02:53:38;;;;;;;21.63;13.73;;;;;;;-2.88;82.00;101251.66;6207934;28;20540;-69
2022/12/13 02:57:01;;;;;;;17.80;12.03;;;;;;;-2.86;81.62;101249.84;6199603;28;20240;-69
2022/12/13 03:00:25;;;;;;;19.70;13.60;;;;;;;-2.72;80.93;101255.59;6204276;28;20236;-69
2022/12/13 03:03:52;;;;;;;22.43;13.77;;;;;;;-2.77;81.58;101258.34;6184854;28;20233;-70
2022/12/13 03:07:24;;;;;;;15.00;12.43;;;;;;;-2.75;80.64;101256.53;6190716;28;20237;-70
2022/12/13 03:10:55;;;;;;;16.63;12.47;;;;;;;-2.73;81.13;101259.13;6207061;28;20404;-70
2022/12/13 03:14:19;;;;;;;18.20;11.07;;;;;;;-2.69;80.72;101256.38;6213456;28;20249;-68
2022/12/13 03:17:45;;;;;;;18.83;13.30;;;;;;;-2.75;80.70;101264.44;6201077;28;20240;-71
2022/12/13 03:21:09;;;;;;;22.20;13.30;;;;;;;-2.66;80.41;101265.97;6201729;28;20237;-70
2022/12/13 03:24:31;;;;;;;19.93;13.03;;;;;;;-3.18;82.32;101253.38;6192082;28;20531;-69
2022/12/13 03:27:53;;;;;;;21.67;12.07;;;;;;;-3.11;81.53;101251.44;6191303;28;20236;-69
2022/12/13 03:31:14;;;;;;;20.70;11.40;;;;;;;-2.93;82.27;101249.16;6197050;28;20228;-70
2022/12/13 03:34:34;;;;;;;15.97;11.63;;;;;;;-2.88;80.57;101247.22;6204368;28;20777;-70
2022/12/13 03:37:55;;;;;;;23.20;10.73;;;;;;;-2.95;81.56;101239.56;6190180;28;20658;-70
2022/12/13 03:41:20;;;;;;;27.13;11.80;;;;;;;-2.95;80.80;101236.91;6201319;28;20220;-70
2022/12/13 03:44:41;;;;;;;17.60;12.60;;;;;;;-3.18;81.97;101242.81;6208735;28;20229;-70
2022/12/13 03:48:02;;;;;;;15.80;12.30;;;;;;;-2.92;82.43;101237.69;6197464;28;20236;-70
2022/12/13 03:51:23;;;;;;;26.47;12.80;;;;;;;-2.78;80.70;101240.81;6193114;28;20233;-69
2022/12/13 03:54:43;;;;;;;25.53;13.10;;;;;;;-2.70;80.42;101235.31;6204728;28;20232;-69
2022/12/13 03:58:05;;;;;;;15.03;10.17;;;;;;;-2.78;80.19;101232.03;6189203;28;21836;-70
2022/12/13 04:01:26;;;;;;;27.07;13.00;;;;;;;-2.82;81.25;101240.94;6182233;28;20236;-70
2022/12/13 04:04:47;;;;;;;15.67;10.67;;;;;;;-2.86;81.41;101237.53;6202855;28;20241;-70
2022/12/13 04:08:08;;;;;;;19.63;11.30;;;;;;;-2.82;81.47;101227.75;6194784;28;20606;-70
2022/12/13 04:15:10;;;;;;;17.37;11.83;;;;;;;-2.89;81.56;101223.56;6189856;28;20237;-68
2022/12/13 04:18:31;;;;;;;19.33;11.23;;;;;;;-3.15;82.81;101226.91;6196067;28;20221;-69
2022/12/13 04:21:52;;;;;;;20.67;11.73;;;;;;;-3.21;82.72;101229.72;6195680;28;20248;-68
2022/12/13 04:25:14;;;;;;;20.60;13.17;;;;;;;-3.23;84.02;101226.25;6201171;28;20941;-69
2022/12/13 04:28:36;;;;;;;19.37;12.87;;;;;;;-2.63;84.09;101221.88;6192082;28;20237;-69
2022/12/13 04:31:58;;;;;;;12.90;8.73;;;;;;;-2.27;82.47;101229.63;6201518;28;20230;-68
2022/12/13 04:35:18;;;;;;;19.73;12.30;;;;;;;-2.80;82.16;101225.94;6209391;28;20401;-70
2022/12/13 04:38:40;;;;;;;26.83;12.50;;;;;;;-2.97;82.35;101221.16;6200439;28;20516;-69
2022/12/13 04:42:01;;;;;;;17.13;10.93;;;;;;;-3.16;82.30;101217.28;6192269;28;20603;-69
2022/12/13 04:45:22;;;;;;;19.20;13.10;;;;;;;-2.81;83.16;101222.44;6204679;28;20702;-70
2022/12/13 04:48:45;;;;;;;17.77;10.80;;;;;;;-2.79;81.60;101228.53;6200331;28;20325;-69
2022/12/13 04:52:06;;;;;;;20.50;10.83;;;;;;;-2.69;81.49;101223.88;6211153;28;20220;-69
2022/12/13 04:55:27;;;;;;;21.30;13.07;;;;;;;-2.89;81.68;101223.56;6219071;28;20315;-70
2022/12/13 04:58:48;;;;;;;15.33;9.17;;;;;;;-2.68;82.50;101215.03;6207424;28;20294;-70
2022/12/13 05:02:10;;;;;;;18.77;10.60;;;;;;;-3.03;81.78;101216.03;6196110;28;20229;-69
2022/12/13 05:05:32;;;;;;;19.23;11.13;;;;;;;-2.92;82.34;101223.66;6213679;28;20838;-69
2022/12/13 05:08:53;;;;;;;17.73;10.57;;;;;;;-2.78;82.41;101216.22;6207610;28;20233;-69
2022/12/13 05:12:15;;;;;;;17.53;11.37;;;;;;;-3.16;82.88;101219.03;6203869;28;20229;-69
2022/12/13 05:15:36;;;;;;;16.97;11.37;;;;;;;-3.38;84.33;101217.00;6200426;28;20790;-70
2022/12/13 05:18:57;;;;;;;25.43;12.20;;;;;;;-3.35;84.21;101213.41;6192767;28;20241;-70
2022/12/13 05:22:19;;;;;;;15.50;9.43;;;;;;;-3.23;83.45;101206.97;6201774;28;20258;-70
2022/12/13 05:25:41;;;;;;;19.73;10.23;;;;;;;-2.93;82.84;101217.50;6210390;28;20253;-70
2022/12/13 05:29:02;;;;;;;18.13;11.50;;;;;;;-3.03;83.86;101209.91;6204399;28;20232;-69
2022/12/13 05:32:23;;;;;;;25.77;14.07;;;;;;;-3.05;83.62;101209.97;6188091;28;20237;-70
2022/12/13 05:35:44;;;;;;;21.03;12.03;;;;;;;-2.82;83.92;101206.66;6201007;28;20255;-70
2022/12/13 05:39:06;;;;;;;17.53;10.70;;;;;;;-2.76;83.14;101202.06;6196926;28;20324;-70
2022/12/13 05:42:27;;;;;;;18.40;10.70;;;;;;;-3.07;82.51;101205.63;6190286;28;20237;-69
2022/12/13 05:45:47;;;;;;;19.80;10.87;;;;;;;-2.81;82.42;101209.25;6197798;28;20614;-69
2022/12/13 05:49:09;;;;;;;24.90;11.23;;;;;;;-2.60;83.13;101211.25;6204851;28;20229;-70
2022/12/13 05:52:30;;;;;;;22.13;9.33;;;;;;;-2.80;82.95;101215.38;6198798;28;20625;-69
2022/12/13 05:55:52;;;;;;;16.40;9.07;;;;;;;-2.68;82.61;101210.63;6204476;28;20237;-70
2022/12/13 05:59:13;;;;;;;17.73;10.47;;;;;;;-2.61;82.37;101219.22;6203725;28;20240;-69
2022/12/13 06:02:37;;;;;;;16.57;9.67;;;;;;;-2.81;81.82;101218.91;6161979;28;20288;-69
2022/12/13 06:06:01;;;;;;;14.90;10.77;;;;;;;-2.67;82.64;101211.50;6187591;28;20229;-69
2022/12/13 06:09:21;;;;;;;14.80;10.13;;;;;;;-2.50;82.38;101211.84;6200318;28;20283;-70
2022/12/13 06:12:44;;;;;;;16.73;11.07;;;;;;;-2.39;82.28;101208.88;6183821;28;20224;-69
2022/12/13 06:16:06;;;;;;;13.50;8.60;;;;;;;-2.24;80.91;101206.63;6165334;28;20746;-72
2022/12/13 06:19:27;;;;;;;16.93;11.03;;;;;;;-2.26;81.08;101202.31;6196886;28;20230;-72
2022/12/13 06:22:48;;;;;;;14.37;10.07;;;;;;;-2.27;80.35;101205.88;6189025;28;20246;-72
2022/12/13 06:26:08;;;;;;;25.17;11.17;;;;;;;-2.20;80.33;101212.66;6202590;28;20225;-73
2022/12/13 06:29:31;;;;;;;15.00;7.50;;;;;;;-2.11;80.11;101201.84;6210078;28;20241;-71
2022/12/13 06:32:52;;;;;;;13.97;8.83;;;;;;;-2.10;80.35;101211.47;6181492;28;20292;-72
2022/12/13 06:36:12;;;;;;;18.07;9.53;;;;;;;-2.13;81.16;101209.81;6190616;28;20221;-71
2022/12/13 06:39:34;;;;;;;22.67;10.57;;;;;;;-2.13;80.32;101212.44;6168639;28;20571;-73
2022/12/13 06:42:54;;;;;;;19.07;10.43;;;;;;;-2.11;79.96;101209.75;6185162;28;20229;-73
2022/12/13 06:46:16;;;;;;;21.97;13.23;;;;;;;-2.02;80.12;101210.31;6182508;28;20655;-72
2022/12/13 06:49:37;;;;;;;14.67;9.67;;;;;;;-2.49;80.96;101211.81;6193296;28;20237;-73
2022/12/13 06:52:58;;;;;;;13.13;9.77;;;;;;;-2.30;81.31;101216.50;6198160;28;20312;-72
2022/12/13 06:56:19;;;;;;;13.53;8.37;;;;;;;-2.17;80.59;101223.16;6187143;28;20723;-71
2022/12/13 06:59:41;;;;;;;23.10;11.10;;;;;;;-2.16;81.00;101223.09;6203035;28;20237;-72
2022/12/13 07:03:03;;;;;;;22.50;11.73;;;;;;;-2.01;81.15;101225.25;6192964;28;20236;-72
2022/12/13 07:06:25;;;;;;;21.20;13.67;;;;;;;-2.05;80.02;101225.41;6200503;28;20245;-73
2022/12/13 07:09:46;;;;;;;21.60;13.97;;;;;;;-1.95;80.47;101232.13;6201472;28;20237;-72
2022/12/13 07:13:07;;;;;;;18.80;11.03;;;;;;;-1.97;79.54;101232.16;6192260;28;20225;-71
2022/12/13 07:16:28;;;;;;;20.63;11.57;;;;;;;-2.08;80.40;101223.72;6188807;28;20232;-72
2022/12/13 07:19:51;;;;;;;15.47;9.90;;;;;;;-1.97;80.39;101221.59;6203975;28;20234;-71
2022/12/13 07:23:12;;;;;;;20.37;10.73;;;;;;;-1.83;80.45;101224.66;6191537;28;20653;-72
2022/12/13 07:26:33;;;;;;;16.37;10.10;;;;;;;-1.90;79.88;101227.56;6187686;28;20643;-71
2022/12/13 07:29:54;;;;;;;14.57;9.03;;;;;;;-1.86;79.85;101227.41;6196978;28;20228;-71
2022/12/13 07:33:15;;;;;;;16.57;9.47;;;;;;;-2.01;80.52;101224.38;6191366;28;20237;-71
2022/12/13 07:36:37;;;;;;;17.23;11.47;;;;;;;-1.84;80.07;101230.88;6187930;28;20225;-71
2022/12/13 07:39:59;;;;;;;16.63;10.57;;;;;;;-1.82;79.80;101218.47;6200001;28;20249;-71
2022/12/13 07:43:19;;;;;;;16.13;9.77;;;;;;;-1.88;79.67;101220.44;6187245;28;20226;-71
2022/12/13 07:46:40;;;;;;;18.20;8.80;;;;;;;-2.01;80.72;101238.47;6186890;28;20241;-71
2022/12/13 07:50:01;;;;;;;14.47;9.27;;;;;;;-2.17;81.68;101234.56;6200533;28;20253;-72
2022/12/13 07:53:23;;;;;;;17.77;9.97;;;;;;;-1.97;81.34;101240.09;6191894;28;20307;-72
2022/12/13 07:56:44;;;;;;;13.50;8.43;;;;;;;-1.71;80.33;101249.84;6196875;28;20237;-72
2022/12/13 08:00:06;;;;;;;18.30;8.87;;;;;;;-2.13;80.91;101246.78;6205978;28;20232;-72
2022/12/13 08:03:33;;;;;;;14.67;11.33;;;;;;;-2.26;81.33;101245.41;6190907;28;20235;-71
2022/12/13 08:06:54;;;;;;;13.33;8.93;;;;;;;-2.22;81.32;101244.41;6193205;28;20325;-72
2022/12/13 08:10:17;;;;;;;16.10;9.20;;;;;;;-0.78;87.26;101240.38;6205244;28;20232;-74
2022/12/13 08:13:39;;;;;;;14.77;9.87;;;;;;;-0.70;81.70;101245.38;6191015;28;20634;-74
2022/12/13 08:17:00;;;;;;;15.33;10.53;;;;;;;-0.15;82.24;101242.38;6190856;28;20622;-74
2022/12/13 08:20:21;;;;;;;9.77;7.57;;;;;;;-0.29;86.08;101248.19;6207793;28;20229;-74
2022/12/13 08:23:42;;;;;;;14.80;9.93;;;;;;;-0.21;78.45;101246.09;6193868;28;20237;-74
2022/12/13 08:27:04;;;;;;;16.70;10.00;;;;;;;-0.75;77.80;101250.84;6180611;28;20245;-75
2022/12/13 08:30:25;;;;;;;14.07;8.70;;;;;;;-0.75;79.01;101252.63;6201396;28;20339;-74
2022/12/13 08:33:47;;;;;;;15.70;9.50;;;;;;;-0.76;78.68;101242.97;6191667;28;20781;-74
2022/12/13 08:37:08;;;;;;;17.63;10.60;;;;;;;-1.04;78.99;101232.50;6194394;28;20574;-74
2022/12/13 08:40:29;;;;;;;20.10;10.27;;;;;;;-0.91;78.16;101239.97;6187496;28;20237;-71
2022/12/13 08:43:51;;;;;;;11.97;9.53;;;;;;;-1.10;78.16;101230.94;6188816;28;20618;-72
2022/12/13 08:47:12;;;;;;;15.47;7.70;;;;;;;-1.26;78.86;101232.41;6193668;28;20370;-72
2022/12/13 08:50:35;;;;;;;15.20;9.17;;;;;;;-1.02;78.59;101228.88;6212612;28;20849;-72
2022/12/13 08:53:56;;;;;;;19.30;9.83;;;;;;;-0.67;77.27;101226.75;6206661;28;20233;-72
2022/12/13 08:57:17;;;;;;;16.80;9.03;;;;;;;-0.05;74.56;101223.41;6195094;28;20337;-71
2022/12/13 09:00:41;;;;;;;16.97;10.13;;;;;;;0.04;73.89;101227.50;6213354;28;20228;-71
2022/12/13 09:04:02;;;;;;;12.47;8.23;;;;;;;0.68;72.55;101226.56;6200501;28;20250;-71
2022/12/13 09:07:23;;;;;;;10.43;7.90;;;;;;;-0.40;74.71;101225.72;6203918;28;20233;-71
2022/12/13 09:10:44;;;;;;;17.97;10.90;;;;;;;-1.25;77.90;101233.28;6206887;28;20320;-71
2022/12/13 09:14:05;;;;;;;19.47;11.07;;;;;;;-0.63;76.65;101229.22;6215472;28;20232;-71
2022/12/13 09:17:30;;;;;;;18.63;10.07;;;;;;;2.02;69.96;101227.47;6195215;28;20233;-71
2022/12/13 09:20:51;;;;;;;17.20;11.03;;;;;;;4.19;59.36;101220.34;6215740;28;20232;-72
2022/12/13 09:24:13;;;;;;;16.63;8.60;;;;;;;6.18;53.26;101197.28;6207227;28;20541;-71
2022/12/13 09:27:34;;;;;;;16.43;9.30;;;;;;;7.01;50.79;101207.69;6200770;28;20225;-72
2022/12/13 09:30:55;;;;;;;15.40;8.70;;;;;;;7.83;48.39;101210.78;6207052;28;20323;-71
2022/12/13 09:34:17;;;;;;;16.13;8.43;;;;;;;6.13;51.23;101214.63;6213829;28;20245;-71
2022/12/13 09:37:38;;;;;;;9.57;7.13;;;;;;;3.90;58.03;101221.13;6198362;28;20229;-72
2022/12/13 09:41:03;;;;;;;16.20;9.53;;;;;;;4.44;56.41;101219.78;6212370;28;20225;-71
2022/12/13 09:44:27;;;;;;;23.63;10.57;;;;;;;6.14;52.09;101205.59;6188878;28;20596;-72
2022/12/13 09:47:49;;;;;;;16.53;8.97;;;;;;;4.24;56.19;101218.25;6187409;28;20316;-72
2022/12/13 09:51:11;;;;;;;13.00;7.63;;;;;;;2.69;61.57;101221.47;6188353;28;20237;-71
2022/12/13 09:54:33;;;;;;;18.43;9.90;;;;;;;1.72;64.89;101226.25;6199723;28;20237;-72
2022/12/13 09:57:55;;;;;;;13.33;11.13;;;;;;;1.72;67.00;101210.31;6188509;28;20618;-71
2022/12/13 10:01:16;;;;;;;13.60;9.57;;;;;;;2.68;64.52;101212.63;6195194;28;20320;-71
2022/12/13 10:04:37;;;;;;;15.37;10.83;;;;;;;1.56;66.12;101218.13;6199659;28;20239;-72
2022/12/13 10:08:06;;;;;;;10.47;8.10;;;;;;;1.04;69.21;101208.16;6191626;28;20531;-72
2022/12/13 10:11:28;;;;;;;13.13;8.70;;;;;;;1.20;69.58;101210.97;6187778;28;20535;-72
2022/12/13 10:14:55;;;;;;;15.30;10.63;;;;;;;1.01;69.89;101218.03;6201993;28;20328;-72
2022/12/13 10:18:26;;;;;;;15.13;8.97;;;;;;;0.83;71.13;101207.28;6190169;28;20233;-71
2022/12/13 10:21:48;;;;;;;12.43;8.10;;;;;;;0.46;71.23;101204.50;6184278;28;20237;-72
2022/12/13 10:25:10;;;;;;;11.70;8.23;;;;;;;0.46;71.95;101208.97;6188523;28;20618;-71
2022/12/13 10:28:33;;;;;;;15.00;10.33;;;;;;;0.21;73.13;101202.94;6189579;28;20610;-71
2022/12/13 10:31:54;;;;;;;14.03;9.93;;;;;;;0.21;73.70;101202.94;6194840;28;20662;-71
2022/12/13 10:35:23;;;;;;;19.17;9.63;;;;;;;0.19;73.92;101200.34;6211818;28;20266;-71
2022/12/13 10:38:45;;;;;;;19.93;12.13;;;;;;;0.25;73.69;101197.44;6201578;28;20304;-70
2022/12/13 10:42:13;;;;;;;18.10;9.93;;;;;;;0.24;73.54;101195.72;6202224;28;20229;-70
2022/12/13 10:45:36;;;;;;;16.57;10.90;;;;;;;0.34;73.34;101198.84;6200943;28;20240;-70
2022/12/13 10:48:57;;;;;;;14.33;11.23;;;;;;;0.24;73.79;101194.84;6201531;28;20229;-70
2022/12/13 10:52:27;;;;;;;18.17;9.27;;;;;;;0.23;74.58;101185.19;6183339;28;20550;-72
2022/12/13 10:55:55;;;;;;;12.63;8.43;;;;;;;0.33;74.10;101186.53;6194917;28;20240;-71
2022/12/13 10:59:32;;;;;;;11.57;7.30;;;;;;;0.46;73.62;101188.59;6198207;28;20222;-71
2022/12/13 11:02:54;;;;;;;16.70;9.87;;;;;;;0.54;73.03;101177.69;6189970;28;20256;-70
2022/12/13 11:06:16;;;;;;;11.90;7.90;;;;;;;0.36;73.46;101178.44;6190938;28;20600;-71
2022/12/13 11:09:37;;;;;;;12.13;8.50;;;;;;;0.65;73.45;101173.63;6197879;28;20228;-69
2022/12/13 11:13:02;;;;;;;11.90;7.87;;;;;;;0.39;72.87;101165.94;6184962;28;20233;-70
2022/12/13 11:16:27;;;;;;;13.10;9.20;;;;;;;0.67;72.70;101165.59;6185140;28;20221;-71
2022/12/13 11:19:51;;;;;;;15.53;9.37;;;;;;;0.45;72.98;101162.16;6201975;28;20418;-71
2022/12/13 11:23:23;;;;;;;15.00;8.13;;;;;;;0.27;73.62;101154.97;6203043;28;20316;-72
2022/12/13 11:26:47;;;;;;;9.23;7.10;;;;;;;0.10;73.59;101154.81;6201999;28;20607;-71
2022/12/13 11:30:16;;;;;;;18.23;9.47;;;;;;;0.08;73.21;101156.66;6207763;28;20233;-71
2022/12/13 11:33:48;;;;;;;10.83;8.40;;;;;;;0.05;73.06;101149.69;6201228;28;20229;-71
2022/12/13 11:37:20;;;;;;;12.97;7.97;;;;;;;0.24;73.35;101145.38;6192260;28;20233;-72
2022/12/13 11:40:46;;;;;;;11.53;7.63;;;;;;;0.10;74.71;101145.09;6208213;28;20237;-72
2022/12/13 11:44:16;;;;;;;14.83;9.10;;;;;;;0.22;74.93;101141.91;6185840;28;20233;-71
2022/12/13 11:47:43;;;;;;;14.40;8.73;;;;;;;-0.08;76.14;101133.44;6189102;28;21196;-71
2022/12/13 11:51:10;;;;;;;11.53;7.30;;;;;;;0.15;75.63;101131.66;6200925;28;20257;-71
2022/12/13 11:54:38;;;;;;;15.57;8.70;;;;;;;0.43;75.84;101126.88;6209047;28;20217;-72
2022/12/13 11:58:04;;;;;;;13.37;8.33;;;;;;;0.51;74.59;101130.06;6200673;28;20220;-71
2022/12/13 12:01:33;;;;;;;14.03;7.63;;;;;;;0.36;75.14;101128.94;6195864;28;20610;-72
2022/12/13 12:04:56;;;;;;;12.40;8.33;;;;;;;0.34;74.78;101124.63;6210208;28;20225;-71
2022/12/13 12:08:24;;;;;;;18.17;8.83;;;;;;;0.34;74.50;101127.28;6196598;28;20611;-72
2022/12/13 12:11:51;;;;;;;12.30;8.07;;;;;;;0.31;73.22;101119.47;6196421;28;20237;-71
2022/12/13 12:15:16;;;;;;;10.40;6.93;;;;;;;0.25;72.93;101117.06;6205375;28;20229;-72
2022/12/13 12:18:37;;;;;;;13.50;6.80;;;;;;;0.38;72.27;101115.59;6196689;28;20238;-71
2022/12/13 12:22:11;;;;;;;10.03;6.83;;;;;;;0.37;72.18;101116.53;6203372;28;20261;-71
2022/12/13 12:25:42;;;;;;;11.17;6.83;;;;;;;0.51;72.88;101117.66;6201645;28;20236;-72
2022/12/13 12:29:25;;;;;;;13.80;10.97;;;;;;;0.57;71.69;101106.78;6199828;28;20321;-72
2022/12/13 12:32:53;;;;;;;9.50;6.33;;;;;;;0.97;71.58;101105.00;6191883;28;20606;-71
2022/12/13 12:36:29;;;;;;;11.63;6.80;;;;;;;1.52;69.96;101098.84;6199369;28;20887;-71
2022/12/13 12:40:06;;;;;;;11.43;8.07;;;;;;;1.72;69.13;101101.38;6214524;28;20634;-72
2022/12/13 12:43:32;;;;;;;9.30;7.20;;;;;;;1.26;69.95;101102.72;6204640;28;20232;-72
2022/12/13 12:47:05;;;;;;;14.17;8.50;;;;;;;1.16;70.18;101096.13;6194438;28;20604;-72
2022/12/13 12:50:35;;;;;;;14.93;8.67;;;;;;;1.12;71.09;101097.19;6196016;28;20260;-71
2022/12/13 12:54:12;;;;;;;17.33;9.37;;;;;;;1.63;70.00;101095.66;6202598;28;20267;-72
2022/12/13 12:57:45;;;;;;;9.70;7.23;;;;;;;2.85;65.08;101090.16;6199628;28;20232;-71
2022/12/13 13:01:18;;;;;;;15.23;8.13;;;;;;;1.83;67.15;101091.09;6209064;28;20756;-71
2022/12/13 13:04:45;;;;;;;15.17;9.47;;;;;;;0.83;70.71;101092.38;6205064;28;20229;-71
2022/12/13 13:08:14;;;;;;;19.63;8.97;;;;;;;0.70;71.69;101085.88;6203094;28;20630;-72
2022/12/13 13:11:40;;;;;;;12.77;8.87;;;;;;;0.61;72.54;101080.97;6190079;28;20881;-72
2022/12/13 13:15:40;;;;;;;9.17;8.07;;;;;;;0.70;72.29;101091.19;6201160;28;20220;-72
2022/12/13 13:19:03;;;;;;;13.33;9.30;;;;;;;0.95;71.96;101089.16;6202562;28;20315;-71
2022/12/13 13:22:30;;;;;;;13.80;7.77;;;;;;;0.61;72.37;101086.28;6202910;28;20559;-72
2022/12/13 13:25:55;;;;;;;8.97;7.27;;;;;;;0.32;73.68;101094.66;6209083;28;20228;-72
2022/12/13 13:29:32;;;;;;;17.10;9.37;;;;;;;0.54;72.95;101091.00;6209984;28;20233;-72
2022/12/13 13:32:55;;;;;;;14.77;9.23;;;;;;;0.46;73.92;101097.59;6197127;28;20529;-72
2022/12/13 13:36:51;;;;;;;8.53;7.17;;;;;;;0.49;74.25;101076.22;6195533;28;20316;-71
2022/12/13 13:40:34;;;;;;;12.57;9.23;;;;;;;1.04;72.66;101082.56;6203433;28;20237;-72
2022/12/13 13:43:55;;;;;;;13.93;8.33;;;;;;;0.65;73.23;101079.91;6202440;28;20228;-72
2022/12/13 13:47:34;;;;;;;10.47;8.77;;;;;;;0.65;73.52;101082.56;6197455;28;20333;-73
2022/12/13 13:51:27;;;;;;;16.67;9.07;;;;;;;0.59;73.06;101080.19;6206116;28;20237;-71
2022/12/13 13:55:22;;;;;;;14.80;8.63;;;;;;;0.79;72.92;101082.81;6213338;28;20934;-71
2022/12/13 13:59:23;;;;;;;13.70;8.77;;;;;;;0.85;73.36;101082.53;6201717;28;20223;-72
2022/12/13 14:03:25;;;;;;;13.27;10.00;;;;;;;1.00;73.02;101080.97;6201759;28;20606;-72
2022/12/13 14:07:16;;;;;;;10.87;8.13;;;;;;;0.60;73.73;101084.59;6182015;28;20240;-72
2022/12/13 14:10:51;;;;;;;18.00;9.80;;;;;;;0.46;74.77;101081.69;6199571;28;20336;-72
2022/12/13 14:14:53;;;;;;;12.17;6.97;;;;;;;0.30;75.49;101078.84;6211968;28;20229;-72
2022/12/13 14:18:47;;;;;;;15.37;10.33;;;;;;;0.31;75.87;101077.91;6197839;28;20326;-73
2022/12/13 14:22:24;;;;;;;13.87;8.57;;;;;;;0.51;75.66;101069.94;6193842;28;20225;-72
2022/12/13 14:25:59;;;;;;;17.77;11.23;;;;;;;0.57;75.64;101061.69;6206460;28;20259;-72
2022/12/13 14:29:26;;;;;;;15.10;10.60;;;;;;;0.45;75.89;101058.75;6209714;28;20233;-72
2022/12/13 14:32:49;;;;;;;18.67;9.37;;;;;;;0.55;76.08;101060.03;6195254;28;20241;-72
2022/12/13 14:36:15;;;;;;;16.00;11.80;;;;;;;0.55;75.79;101062.69;6204807;28;20268;-72
2022/12/13 14:39:36;;;;;;;20.73;12.37;;;;;;;0.66;76.44;101063.94;6208015;28;20217;-70
2022/12/13 14:42:59;;;;;;;16.77;11.77;;;;;;;0.72;75.51;101068.09;6196969;28;20257;-72
2022/12/13 14:46:19;;;;;;;15.93;9.43;;;;;;;0.92;75.14;101070.69;6194066;28;20342;-72
2022/12/13 14:49:45;;;;;;;20.40;13.10;;;;;;;0.49;76.57;101068.28;6210725;28;20936;-72
2022/12/13 14:53:07;;;;;;;16.00;10.03;;;;;;;0.45;77.05;101058.75;6195438;28;20237;-72
2022/12/13 14:56:29;;;;;;;14.57;10.17;;;;;;;0.51;76.90;101059.34;6190880;28;20237;-72
2022/12/13 14:59:54;;;;;;;18.57;11.70;;;;;;;0.48;76.88;101059.44;6206403;28;20527;-72
2022/12/13 15:03:22;;;;;;;18.87;11.40;;;;;;;0.51;77.14;101047.84;6196668;28;20233;-72
2022/12/13 15:06:44;;;;;;;19.07;12.77;;;;;;;0.27;77.42;101047.16;6198362;28;20235;-72
2022/12/13 15:10:21;;;;;;;15.60;10.40;;;;;;;0.00;78.71;101043.06;6209004;28;20221;-73
2022/12/13 15:13:43;;;;;;;15.10;10.23;;;;;;;-0.11;79.14;101035.59;6192970;28;20647;-71
2022/12/13 15:17:06;;;;;;;15.27;10.60;;;;;;;-0.08;79.32;101034.56;6191982;28;20559;-71
2022/12/13 15:20:32;;;;;;;18.07;10.73;;;;;;;-0.14;80.04;101038.34;6200992;28;20232;-72
2022/12/13 15:23:59;;;;;;;23.27;12.07;;;;;;;-0.18;80.12;101027.94;6191383;28;20233;-71
2022/12/13 15:27:24;;;;;;;19.23;11.53;;;;;;;-0.26;80.77;101027.41;6188089;28;21294;-70
2022/12/13 15:30:45;;;;;;;19.07;12.30;;;;;;;-0.30;80.99;101031.09;6196719;28;20233;-71
2022/12/13 15:34:33;;;;;;;16.60;12.33;;;;;;;-0.32;81.10;101036.47;6188555;28;20591;-72
2022/12/13 15:37:54;;;;;;;21.97;12.93;;;;;;;-0.41;81.39;101043.94;6190408;28;20933;-72
2022/12/13 15:41:17;;;;;;;17.93;13.27;;;;;;;-0.48;82.33;101047.75;6191107;28;20233;-71
2022/12/13 15:44:44;;;;;;;20.30;12.30;;;;;;;-0.42;82.04;101048.38;6204005;28;20237;-72
2022/12/13 15:48:05;;;;;;;19.03;11.93;;;;;;;-0.44;81.73;101055.50;6182157;28;20795;-72